Alta, Iowa
Current Conditions -  °F | °C
As of 9:15 PM on Friday 31 Oct 2014 (Local Time) from KSLB Reporting Station
Clear Clear  
Wind Chill: 20°   Ceiling: Unl
Heat Index: 27°   Visibility: NA
Dew Point: 16°   Wind: 6mph
Humidity: 64%   Direction: 90°E
Pressure: 30.45"   Gusts: NA
Location:  42.67°N, 95.29°W
Report Text: KSLB 010215Z AUTO 09005KT CLR M03/M09 A3045 RMK AO2
Loading
Personal Weather Stations






























Interactive Weather Map
Tropical Storm Tracking
New forecast layout! Learn more

10-Day Weather Forecast

Advertisements
Track Severe Weather on mobile